Time;durP1;ratioP1;P1;durP2;ratioP2;P2;SDS_P1;SDS_P2;PMS_P1;PMS_P2;Temp;Humidity;BMP_temperature;BMP_pressure;BME280_temperature;BME280_humidity;BME280_pressure;Samples;Min_cycle;Max_cycle;Signal;HPM_P1;HPM_P2
2021/08/25 00:00:35;;;;;;;11.27;6.00;;;;;;;;;;5031764;28;20033;-49
2021/08/25 00:03:01;;;;;;;11.27;6.32;;;;;;;;;;5035905;28;20041;-49
2021/08/25 00:05:27;;;;;;;13.73;7.03;;;;;;;;;;5036816;28;20032;-49
2021/08/25 00:07:53;;;;;;;9.95;6.43;;;;;;;;;;5035197;28;20025;-49
2021/08/25 00:10:19;;;;;;;12.45;6.68;;;;;;;;;;5036084;28;20083;-49
2021/08/25 00:12:45;;;;;;;11.45;6.60;;;;;;;;;;5035876;28;20026;-49
2021/08/25 00:15:11;;;;;;;13.32;6.32;;;;;;;;;;5036325;28;20400;-49
2021/08/25 00:17:37;;;;;;;13.57;5.75;;;;;;;;;;5036520;28;20041;-49
2021/08/25 00:20:04;;;;;;;8.10;5.70;;;;;;;;;;5034774;28;20025;-50
2021/08/25 00:22:30;;;;;;;10.50;5.75;;;;;;;;;;5034866;28;20033;-49
2021/08/25 00:24:56;;;;;;;9.93;5.90;;;;;;;;;;5035964;28;20035;-49
2021/08/25 00:27:22;;;;;;;21.77;6.82;;;;;;;;;;5035936;28;20344;-49
2021/08/25 00:29:48;;;;;;;12.40;6.18;;;;;;;;;;5035735;28;20049;-49
2021/08/25 00:32:14;;;;;;;14.50;6.88;;;;;;;;;;5035396;28;20021;-49
2021/08/25 00:34:40;;;;;;;11.27;6.32;;;;;;;;;;5035438;28;20037;-49
2021/08/25 00:37:06;;;;;;;9.60;6.25;;;;;;;;;;5035993;28;20080;-49
2021/08/25 00:39:32;;;;;;;12.40;6.13;;;;;;;;;;5034512;28;20032;-49
2021/08/25 00:41:58;;;;;;;10.73;5.82;;;;;;;;;;5035668;28;20033;-49
2021/08/25 00:44:24;;;;;;;13.02;6.55;;;;;;;;;;5035570;28;20112;-49
2021/08/25 00:46:50;;;;;;;8.05;5.28;;;;;;;;;;5035711;28;20112;-49
2021/08/25 00:49:20;;;;;;;10.73;6.00;;;;;;;;;;5034683;28;20029;-49
2021/08/25 00:51:46;;;;;;;8.93;5.67;;;;;;;;;;5035439;28;20029;-49
2021/08/25 00:54:12;;;;;;;9.95;6.40;;;;;;;;;;5034782;28;20280;-49
2021/08/25 00:56:38;;;;;;;11.13;6.75;;;;;;;;;;5035127;28;20134;-49
2021/08/25 00:59:06;;;;;;;12.82;5.68;;;;;;;;;;5035205;28;20427;-49
2021/08/25 01:01:32;;;;;;;11.15;6.50;;;;;;;;;;5035381;28;20045;-49
2021/08/25 01:04:00;;;;;;;9.05;5.43;;;;;;;;;;5034989;28;20466;-48
2021/08/25 01:06:27;;;;;;;11.05;5.75;;;;;;;;;;5035064;28;20466;-49
2021/08/25 01:08:54;;;;;;;7.72;5.40;;;;;;;;;;5034531;28;20052;-49
2021/08/25 01:11:20;;;;;;;13.02;7.47;;;;;;;;;;5034622;28;20029;-49
2021/08/25 01:13:46;;;;;;;9.40;6.40;;;;;;;;;;5034407;28;20022;-49
2021/08/25 01:16:12;;;;;;;9.57;5.95;;;;;;;;;;5035413;28;20358;-49
2021/08/25 01:18:39;;;;;;;10.55;6.40;;;;;;;;;;5035175;28;20159;-49
2021/08/25 01:21:05;;;;;;;12.38;6.60;;;;;;;;;;5034319;28;20024;-49
2021/08/25 01:23:40;;;;;;;13.95;6.30;;;;;;;;;;5033690;28;20112;-49
2021/08/25 01:26:06;;;;;;;13.77;5.35;;;;;;;;;;5035217;28;20398;-49
2021/08/25 01:28:35;;;;;;;14.90;6.43;;;;;;;;;;5035221;28;20083;-49
2021/08/25 01:31:02;;;;;;;8.45;5.28;;;;;;;;;;5034381;28;20424;-49
2021/08/25 01:33:29;;;;;;;12.55;5.90;;;;;;;;;;5034557;28;20026;-49
2021/08/25 01:35:55;;;;;;;9.95;5.75;;;;;;;;;;5034658;28;20048;-49
2021/08/25 01:38:21;;;;;;;9.25;5.93;;;;;;;;;;5034282;28;20044;-49
2021/08/25 01:40:47;;;;;;;10.13;5.60;;;;;;;;;;5033698;28;20025;-49
2021/08/25 01:43:13;;;;;;;11.60;5.13;;;;;;;;;;5034688;28;20109;-49
2021/08/25 01:45:39;;;;;;;12.50;6.22;;;;;;;;;;5034923;28;20029;-49
2021/08/25 01:48:05;;;;;;;12.32;6.13;;;;;;;;;;5034603;28;20026;-50
2021/08/25 01:50:31;;;;;;;9.68;5.40;;;;;;;;;;5033268;28;20032;-49
2021/08/25 01:52:57;;;;;;;12.32;5.13;;;;;;;;;;5033786;28;20013;-50
2021/08/25 01:55:23;;;;;;;10.25;5.25;;;;;;;;;;5034186;28;20510;-49
2021/08/25 01:57:49;;;;;;;10.38;5.60;;;;;;;;;;5034359;28;20042;-49
2021/08/25 02:00:15;;;;;;;10.52;6.35;;;;;;;;;;5033604;28;20151;-49
2021/08/25 02:02:41;;;;;;;9.23;5.88;;;;;;;;;;5033696;28;20029;-49
2021/08/25 02:05:08;;;;;;;13.57;5.53;;;;;;;;;;5033792;28;20413;-49
2021/08/25 02:07:33;;;;;;;15.77;6.35;;;;;;;;;;5034629;28;20030;-49
2021/08/25 02:09:59;;;;;;;9.20;5.25;;;;;;;;;;5033015;28;20088;-49
2021/08/25 02:12:25;;;;;;;17.60;5.40;;;;;;;;;;5034127;28;20048;-49
2021/08/25 02:14:51;;;;;;;9.85;5.75;;;;;;;;;;5034280;28;20450;-49
2021/08/25 02:17:17;;;;;;;7.88;5.15;;;;;;;;;;5033768;28;20034;-49
2021/08/25 02:19:43;;;;;;;10.00;5.35;;;;;;;;;;5033064;28;20053;-49
2021/08/25 02:22:09;;;;;;;12.30;6.45;;;;;;;;;;5033315;28;20039;-49
2021/08/25 02:24:35;;;;;;;9.73;5.43;;;;;;;;;;5032676;28;20034;-49
2021/08/25 02:27:01;;;;;;;10.95;5.78;;;;;;;;;;5033893;28;20032;-49
2021/08/25 02:29:27;;;;;;;10.43;6.28;;;;;;;;;;5033660;28;20436;-49
2021/08/25 02:31:53;;;;;;;13.75;5.90;;;;;;;;;;5033166;28;20036;-49
2021/08/25 02:34:19;;;;;;;12.02;6.53;;;;;;;;;;5033783;28;20053;-49
2021/08/25 02:36:45;;;;;;;10.75;5.82;;;;;;;;;;5033438;28;20390;-49
2021/08/25 02:39:11;;;;;;;10.77;5.68;;;;;;;;;;5032232;28;20029;-49
2021/08/25 02:41:37;;;;;;;10.07;5.50;;;;;;;;;;5033375;28;20112;-49
2021/08/25 02:44:03;;;;;;;10.70;6.25;;;;;;;;;;5033382;28;20104;-49
2021/08/25 02:46:29;;;;;;;10.48;5.72;;;;;;;;;;5033513;28;20029;-49
2021/08/25 02:48:55;;;;;;;9.52;5.60;;;;;;;;;;5033178;28;20075;-49
2021/08/25 02:51:21;;;;;;;9.57;6.25;;;;;;;;;;5032354;28;20412;-49
2021/08/25 02:53:47;;;;;;;10.73;5.22;;;;;;;;;;5032642;28;20034;-49
2021/08/25 02:56:13;;;;;;;10.63;6.55;;;;;;;;;;5032757;28;20026;-49
2021/08/25 02:58:39;;;;;;;14.30;6.22;;;;;;;;;;5033655;28;20071;-49
2021/08/25 03:01:05;;;;;;;13.90;6.95;;;;;;;;;;5032843;28;20045;-49
2021/08/25 03:03:31;;;;;;;11.02;6.30;;;;;;;;;;5033394;28;20029;-49
2021/08/25 03:05:58;;;;;;;16.48;6.70;;;;;;;;;;5033071;28;20394;-49
2021/08/25 03:08:24;;;;;;;12.82;7.35;;;;;;;;;;5032916;28;20029;-49
2021/08/25 03:10:50;;;;;;;11.40;6.32;;;;;;;;;;5031567;28;20505;-49
2021/08/25 03:13:16;;;;;;;12.63;6.43;;;;;;;;;;5032815;28;20021;-49
2021/08/25 03:15:42;;;;;;;13.63;7.32;;;;;;;;;;5033481;28;20128;-49
2021/08/25 03:18:08;;;;;;;21.35;7.93;;;;;;;;;;5032922;28;20099;-49
2021/08/25 03:20:34;;;;;;;16.23;7.05;;;;;;;;;;5031852;28;20029;-49
2021/08/25 03:23:00;;;;;;;12.70;6.75;;;;;;;;;;5032271;28;20021;-50
2021/08/25 03:25:26;;;;;;;12.20;6.82;;;;;;;;;;5032147;28;20470;-49
2021/08/25 03:27:52;;;;;;;14.93;7.68;;;;;;;;;;5032304;28;20440;-49
2021/08/25 03:30:18;;;;;;;10.65;6.70;;;;;;;;;;5032448;28;20453;-49
2021/08/25 03:32:44;;;;;;;13.70;7.78;;;;;;;;;;5032700;28;20367;-49
2021/08/25 03:35:10;;;;;;;13.15;7.32;;;;;;;;;;5031902;28;20505;-49
2021/08/25 03:37:38;;;;;;;14.77;7.35;;;;;;;;;;5031970;28;20479;-49
2021/08/25 03:40:05;;;;;;;13.50;7.03;;;;;;;;;;5031425;28;20036;-49
2021/08/25 03:42:31;;;;;;;12.18;7.25;;;;;;;;;;5032255;28;20052;-50
2021/08/25 03:44:56;;;;;;;16.00;7.05;;;;;;;;;;5032504;28;20030;-49
2021/08/25 03:47:22;;;;;;;10.48;6.53;;;;;;;;;;5032876;28;20022;-49
2021/08/25 03:49:48;;;;;;;15.43;7.20;;;;;;;;;;5031797;28;20025;-50
2021/08/25 03:52:14;;;;;;;16.13;7.10;;;;;;;;;;5031973;28;20412;-49
2021/08/25 03:54:40;;;;;;;16.20;8.15;;;;;;;;;;5031700;28;20029;-49
2021/08/25 03:57:06;;;;;;;12.48;7.05;;;;;;;;;;5032660;28;20095;-49
2021/08/25 03:59:32;;;;;;;15.20;7.20;;;;;;;;;;5032557;28;20025;-49
2021/08/25 04:01:58;;;;;;;18.10;7.10;;;;;;;;;;5031978;28;20321;-49
2021/08/25 04:04:25;;;;;;;11.95;6.60;;;;;;;;;;5032403;28;20037;-49
2021/08/25 04:06:51;;;;;;;15.13;7.03;;;;;;;;;;5031822;28;20083;-49
2021/08/25 04:09:16;;;;;;;12.57;6.82;;;;;;;;;;5030942;28;20410;-49
2021/08/25 04:11:42;;;;;;;12.98;6.68;;;;;;;;;;5031731;28;20041;-49
2021/08/25 04:14:08;;;;;;;12.05;6.95;;;;;;;;;;5031944;28;20348;-49
2021/08/25 04:16:34;;;;;;;11.88;7.13;;;;;;;;;;5032331;28;20448;-49
2021/08/25 04:19:00;;;;;;;12.40;6.93;;;;;;;;;;5031993;28;20086;-49
2021/08/25 04:21:27;;;;;;;13.77;6.50;;;;;;;;;;5023146;28;20033;-49
2021/08/25 04:23:53;;;;;;;9.45;5.85;;;;;;;;;;5032064;28;20398;-49
2021/08/25 04:26:20;;;;;;;13.57;6.57;;;;;;;;;;5031678;28;20040;-49
2021/08/25 04:28:46;;;;;;;15.43;7.45;;;;;;;;;;5032361;28;20111;-49
2021/08/25 04:31:12;;;;;;;12.82;7.05;;;;;;;;;;5031515;28;20038;-49
2021/08/25 04:33:38;;;;;;;11.35;6.47;;;;;;;;;;5031719;28;20359;-49
2021/08/25 04:36:04;;;;;;;11.85;6.55;;;;;;;;;;5031805;28;20041;-49
2021/08/25 04:38:30;;;;;;;12.77;6.13;;;;;;;;;;5027473;28;20040;-49
2021/08/25 04:40:58;;;;;;;12.23;6.38;;;;;;;;;;5025061;28;20419;-49
2021/08/25 04:43:24;;;;;;;12.35;6.15;;;;;;;;;;5032131;28;20040;-49
2021/08/25 04:45:50;;;;;;;13.50;6.68;;;;;;;;;;5032145;28;20033;-49
2021/08/25 04:48:16;;;;;;;14.27;7.07;;;;;;;;;;5017607;28;20025;-49
2021/08/25 04:50:42;;;;;;;12.00;6.63;;;;;;;;;;5026811;28;20112;-49
2021/08/25 04:53:08;;;;;;;11.98;6.03;;;;;;;;;;5033708;28;20482;-50
2021/08/25 04:55:35;;;;;;;11.30;6.43;;;;;;;;;;5035018;28;20029;-49
2021/08/25 04:58:01;;;;;;;11.57;7.05;;;;;;;;;;5035085;28;20069;-49
2021/08/25 05:00:27;;;;;;;14.73;7.00;;;;;;;;;;5034881;28;20033;-49
2021/08/25 05:02:53;;;;;;;12.43;6.32;;;;;;;;;;5035256;28;20083;-49
2021/08/25 05:05:19;;;;;;;16.35;7.22;;;;;;;;;;5035182;28;20332;-49
2021/08/25 05:07:45;;;;;;;14.57;7.25;;;;;;;;;;5035162;28;20021;-49
2021/08/25 05:10:11;;;;;;;11.73;6.70;;;;;;;;;;5034103;28;20040;-49
2021/08/25 05:12:37;;;;;;;13.57;6.38;;;;;;;;;;5035059;28;20359;-49
2021/08/25 05:15:05;;;;;;;14.23;6.93;;;;;;;;;;5035375;28;20025;-49
2021/08/25 05:17:31;;;;;;;12.75;6.68;;;;;;;;;;5035385;28;20045;-49
2021/08/25 05:19:59;;;;;;;17.67;6.55;;;;;;;;;;5034393;28;20040;-49
2021/08/25 05:22:25;;;;;;;13.85;6.93;;;;;;;;;;5034118;28;20403;-49
2021/08/25 05:24:51;;;;;;;12.05;6.50;;;;;;;;;;5034600;28;20033;-49
2021/08/25 05:27:17;;;;;;;16.52;6.93;;;;;;;;;;5034048;28;20029;-49
2021/08/25 05:29:43;;;;;;;11.30;6.45;;;;;;;;;;5034440;28;20029;-49
2021/08/25 05:32:09;;;;;;;13.50;5.78;;;;;;;;;;5034723;28;20116;-49
2021/08/25 05:34:35;;;;;;;9.35;5.50;;;;;;;;;;5034807;28;20029;-49
2021/08/25 05:37:01;;;;;;;10.30;5.72;;;;;;;;;;5034103;28;20045;-49
2021/08/25 05:39:27;;;;;;;12.98;5.82;;;;;;;;;;5034379;28;20025;-49
2021/08/25 05:41:53;;;;;;;11.18;6.55;;;;;;;;;;5033226;28;20036;-49
2021/08/25 05:44:19;;;;;;;13.07;6.55;;;;;;;;;;5034527;28;20116;-49
2021/08/25 05:46:45;;;;;;;11.68;6.60;;;;;;;;;;5034934;28;20029;-49
2021/08/25 05:49:11;;;;;;;13.27;7.20;;;;;;;;;;5034543;28;20045;-49
2021/08/25 05:51:37;;;;;;;10.88;6.03;;;;;;;;;;5033957;28;20033;-49
2021/08/25 05:54:03;;;;;;;13.00;7.75;;;;;;;;;;5034036;28;20344;-49
2021/08/25 05:56:29;;;;;;;15.32;6.32;;;;;;;;;;5028693;28;20113;-49
2021/08/25 05:58:55;;;;;;;14.23;7.20;;;;;;;;;;5033622;28;20448;-49
2021/08/25 06:01:24;;;;;;;11.95;6.72;;;;;;;;;;5033670;28;20095;-49
2021/08/25 06:03:50;;;;;;;15.00;7.72;;;;;;;;;;5033826;28;20032;-49
2021/08/25 06:06:16;;;;;;;14.15;7.40;;;;;;;;;;5033683;28;20025;-49
2021/08/25 06:08:42;;;;;;;17.88;8.07;;;;;;;;;;5034031;28;20367;-50
2021/08/25 06:11:08;;;;;;;11.82;7.90;;;;;;;;;;5032546;28;20029;-50
2021/08/25 06:13:35;;;;;;;14.88;8.52;;;;;;;;;;5034600;28;20087;-51
2021/08/25 06:16:01;;;;;;;17.45;9.80;;;;;;;;;;5049562;28;20079;-51
2021/08/25 06:18:27;;;;;;;16.98;9.05;;;;;;;;;;5033849;28;20033;-51
2021/08/25 06:20:53;;;;;;;14.25;7.65;;;;;;;;;;5033321;28;20025;-51
2021/08/25 06:23:19;;;;;;;17.70;8.93;;;;;;;;;;5034070;28;20057;-50
2021/08/25 06:25:46;;;;;;;16.17;8.55;;;;;;;;;;5032874;28;20116;-51
2021/08/25 06:28:12;;;;;;;17.77;9.02;;;;;;;;;;5034081;28;20049;-51
2021/08/25 06:30:38;;;;;;;18.75;9.52;;;;;;;;;;5033129;28;20451;-51
2021/08/25 06:33:04;;;;;;;18.85;9.80;;;;;;;;;;5033985;28;20087;-51
2021/08/25 06:35:30;;;;;;;19.20;9.88;;;;;;;;;;5033870;28;20295;-51
2021/08/25 06:37:56;;;;;;;18.23;10.00;;;;;;;;;;5033241;28;20465;-51
2021/08/25 06:40:22;;;;;;;15.50;9.25;;;;;;;;;;5033027;28;20033;-51
2021/08/25 06:42:48;;;;;;;23.67;12.15;;;;;;;;;;5032601;28;20021;-51
2021/08/25 06:45:14;;;;;;;21.52;11.52;;;;;;;;;;5033443;28;20033;-51
2021/08/25 06:47:40;;;;;;;31.70;13.43;;;;;;;;;;5033827;28;20022;-51
2021/08/25 06:50:06;;;;;;;41.92;16.55;;;;;;;;;;5033350;28;20048;-51
2021/08/25 06:52:32;;;;;;;39.55;18.48;;;;;;;;;;5032713;28;20022;-51
2021/08/25 06:54:58;;;;;;;33.75;16.80;;;;;;;;;;5032692;28;20458;-51
2021/08/25 06:57:24;;;;;;;37.65;17.20;;;;;;;;;;5032818;28;20036;-51
2021/08/25 06:59:50;;;;;;;37.42;16.33;;;;;;;;;;5032910;28;20108;-51
2021/08/25 07:02:16;;;;;;;51.47;20.55;;;;;;;;;;5033558;28;20045;-51
2021/08/25 07:04:46;;;;;;;60.13;22.52;;;;;;;;;;5033130;28;20346;-51
2021/08/25 07:07:15;;;;;;;60.92;23.38;;;;;;;;;;5032162;28;20037;-51
2021/08/25 07:09:41;;;;;;;69.32;24.95;;;;;;;;;;5025334;28;20017;-51
2021/08/25 07:12:07;;;;;;;68.70;24.88;;;;;;;;;;5031349;28;20032;-51
2021/08/25 07:14:34;;;;;;;77.90;27.73;;;;;;;;;;5033281;28;20451;-51
2021/08/25 07:17:00;;;;;;;87.30;26.58;;;;;;;;;;5033417;28;20030;-51
2021/08/25 07:19:26;;;;;;;102.70;30.90;;;;;;;;;;5032676;28;20112;-51
2021/08/25 07:21:53;;;;;;;87.80;29.60;;;;;;;;;;5031791;28;20101;-51
2021/08/25 07:24:19;;;;;;;96.68;29.42;;;;;;;;;;5032509;28;20477;-51
2021/08/25 07:26:45;;;;;;;88.78;26.15;;;;;;;;;;5032545;28;20037;-51
2021/08/25 07:29:11;;;;;;;91.75;29.65;;;;;;;;;;5032479;28;20035;-51
2021/08/25 07:31:37;;;;;;;108.22;33.67;;;;;;;;;;5032228;28;20092;-51
2021/08/25 07:34:04;;;;;;;110.90;31.25;;;;;;;;;;5032884;28;20026;-51
2021/08/25 07:36:30;;;;;;;118.45;34.72;;;;;;;;;;5032174;28;20059;-51
2021/08/25 07:38:56;;;;;;;107.22;32.47;;;;;;;;;;5032849;28;20022;-51
2021/08/25 07:41:22;;;;;;;103.85;30.98;;;;;;;;;;5031173;28;20021;-51
2021/08/25 07:43:48;;;;;;;108.45;30.13;;;;;;;;;;5032692;28;20025;-51
2021/08/25 07:46:14;;;;;;;107.70;29.05;;;;;;;;;;5032674;28;20316;-51
2021/08/25 07:48:40;;;;;;;101.03;28.58;;;;;;;;;;5032884;28;20028;-51
2021/08/25 07:51:09;;;;;;;98.15;29.23;;;;;;;;;;5031660;28;20132;-51
2021/08/25 07:53:36;;;;;;;88.43;25.75;;;;;;;;;;5032355;28;20033;-51
2021/08/25 07:56:02;;;;;;;93.22;26.88;;;;;;;;;;5032466;28;20061;-51
2021/08/25 07:58:28;;;;;;;88.45;26.27;;;;;;;;;;5031760;28;20037;-51
2021/08/25 08:00:54;;;;;;;78.32;24.17;;;;;;;;;;5031746;28;20022;-51
2021/08/25 08:03:20;;;;;;;85.00;27.25;;;;;;;;;;5032420;28;20034;-51
2021/08/25 08:05:48;;;;;;;82.43;26.40;;;;;;;;;;5032428;28;20112;-51
2021/08/25 08:08:14;;;;;;;89.50;29.60;;;;;;;;;;5032299;28;20147;-51
2021/08/25 08:10:40;;;;;;;76.97;24.77;;;;;;;;;;5031775;28;20033;-51
2021/08/25 08:13:06;;;;;;;70.05;23.23;;;;;;;;;;5031636;28;20057;-51
2021/08/25 08:15:33;;;;;;;54.83;18.60;;;;;;;;;;5032721;28;20022;-51
2021/08/25 08:18:08;;;;;;;48.60;18.40;;;;;;;;;;5032139;28;20527;-51
2021/08/25 08:20:34;;;;;;;59.65;18.63;;;;;;;;;;5031987;28;20064;-51
2021/08/25 08:23:00;;;;;;;42.28;18.67;;;;;;;;;;5034194;28;20037;-51
2021/08/25 08:25:26;;;;;;;43.92;18.50;;;;;;;;;;5036054;28;20038;-51
2021/08/25 08:27:52;;;;;;;34.47;15.02;;;;;;;;;;5035276;28;20033;-51
2021/08/25 08:30:18;;;;;;;26.67;13.88;;;;;;;;;;5035884;28;20025;-51
2021/08/25 08:32:44;;;;;;;28.38;11.35;;;;;;;;;;5035423;28;20155;-51
2021/08/25 08:35:10;;;;;;;21.75;9.85;;;;;;;;;;5035809;28;20026;-51
2021/08/25 08:37:36;;;;;;;19.42;9.93;;;;;;;;;;5035384;28;20083;-51
2021/08/25 08:40:04;;;;;;;14.98;7.90;;;;;;;;;;5035885;28;20023;-51
2021/08/25 08:42:31;;;;;;;13.45;7.28;;;;;;;;;;5034720;28;20036;-51
2021/08/25 08:44:57;;;;;;;15.10;7.03;;;;;;;;;;5035671;28;20478;-51
2021/08/25 08:47:27;;;;;;;11.57;7.63;;;;;;;;;;5036023;28;20447;-51
2021/08/25 08:49:54;;;;;;;15.45;6.28;;;;;;;;;;5035652;28;20025;-51
2021/08/25 08:52:21;;;;;;;13.88;6.40;;;;;;;;;;5034844;28;20076;-51
2021/08/25 08:54:48;;;;;;;9.60;5.15;;;;;;;;;;5035703;28;20018;-51
2021/08/25 08:57:14;;;;;;;8.45;5.18;;;;;;;;;;5034714;28;20044;-51
2021/08/25 08:59:40;;;;;;;10.73;5.70;;;;;;;;;;5035187;28;20026;-51
2021/08/25 09:02:06;;;;;;;9.27;5.32;;;;;;;;;;5050354;28;20029;-51
2021/08/25 09:04:33;;;;;;;9.65;5.28;;;;;;;;;;5035902;28;20021;-51
2021/08/25 09:06:59;;;;;;;12.05;5.90;;;;;;;;;;5035359;28;20120;-51
2021/08/25 09:09:25;;;;;;;8.75;5.18;;;;;;;;;;5035025;28;20021;-51
2021/08/25 09:11:51;;;;;;;9.93;5.78;;;;;;;;;;5034691;28;20451;-51
2021/08/25 09:14:18;;;;;;;8.25;5.18;;;;;;;;;;5034928;28;20030;-51
2021/08/25 09:16:45;;;;;;;16.30;5.57;;;;;;;;;;5035139;28;20506;-51
2021/08/25 09:19:16;;;;;;;8.02;5.28;;;;;;;;;;5035170;28;20037;-51
2021/08/25 09:21:47;;;;;;;5.65;4.43;;;;;;;;;;5034864;28;20029;-51
2021/08/25 09:24:14;;;;;;;14.40;5.38;;;;;;;;;;5034945;28;20091;-51
2021/08/25 09:27:07;;;;;;;12.25;5.30;;;;;;;;;;5035060;28;20025;-51
2021/08/25 09:29:33;;;;;;;9.80;4.78;;;;;;;;;;5033555;28;20069;-51
2021/08/25 09:31:59;;;;;;;10.57;5.25;;;;;;;;;;5034544;28;20033;-51
2021/08/25 09:34:32;;;;;;;7.32;4.32;;;;;;;;;;5034608;28;20465;-51
2021/08/25 09:37:17;;;;;;;8.95;4.97;;;;;;;;;;5034666;28;20060;-50
2021/08/25 09:39:53;;;;;;;11.10;4.40;;;;;;;;;;5029619;28;20144;-51
2021/08/25 09:42:21;;;;;;;12.07;5.47;;;;;;;;;;5015141;28;20101;-51
2021/08/25 09:44:59;;;;;;;6.82;4.30;;;;;;;;;;5034424;28;20116;-51
2021/08/25 09:47:45;;;;;;;6.70;4.30;;;;;;;;;;5034919;28;20021;-51
2021/08/25 09:50:12;;;;;;;7.93;4.70;;;;;;;;;;5034872;28;20287;-51
2021/08/25 09:52:38;;;;;;;12.40;4.40;;;;;;;;;;5033996;28;20116;-50
2021/08/25 09:55:04;;;;;;;7.53;4.00;;;;;;;;;;5034884;28;20021;-51
2021/08/25 09:57:36;;;;;;;10.82;4.43;;;;;;;;;;5033993;28;20035;-51
2021/08/25 10:00:03;;;;;;;9.80;4.28;;;;;;;;;;5034538;28;20048;-51
2021/08/25 10:02:29;;;;;;;11.30;4.82;;;;;;;;;;5034082;28;20116;-50
2021/08/25 10:04:55;;;;;;;8.95;4.47;;;;;;;;;;5034646;28;20044;-51
2021/08/25 10:07:21;;;;;;;9.35;4.40;;;;;;;;;;5034518;28;20527;-51
2021/08/25 10:09:47;;;;;;;6.43;4.07;;;;;;;;;;5034005;28;20031;-51
2021/08/25 10:12:13;;;;;;;7.03;4.30;;;;;;;;;;5033435;28;20025;-51
2021/08/25 10:14:39;;;;;;;9.90;4.13;;;;;;;;;;5033436;28;20033;-50
2021/08/25 10:17:05;;;;;;;7.15;3.42;;;;;;;;;;5034076;28;20034;-51
2021/08/25 10:19:36;;;;;;;6.30;4.32;;;;;;;;;;5034046;28;20029;-51
2021/08/25 10:22:02;;;;;;;5.28;3.50;;;;;;;;;;5033532;28;20526;-50
2021/08/25 10:24:48;;;;;;;9.00;3.90;;;;;;;;;;5033539;28;20082;-50
2021/08/25 10:27:14;;;;;;;7.88;4.53;;;;;;;;;;5033493;28;20037;-50
2021/08/25 10:29:59;;;;;;;7.00;4.13;;;;;;;;;;5032721;28;20021;-50
2021/08/25 10:32:25;;;;;;;10.23;4.40;;;;;;;;;;5033268;28;20112;-51
2021/08/25 10:35:11;;;;;;;7.03;4.07;;;;;;;;;;5033662;28;20128;-50
2021/08/25 10:37:37;;;;;;;6.90;3.65;;;;;;;;;;5033411;28;20056;-50
2021/08/25 10:40:04;;;;;;;7.28;3.03;;;;;;;;;;5031142;28;20034;-50
2021/08/25 10:42:45;;;;;;;5.70;3.35;;;;;;;;;;5032731;28;20121;-51
2021/08/25 10:45:11;;;;;;;11.25;3.78;;;;;;;;;;5032686;28;20036;-51
2021/08/25 10:48:00;;;;;;;8.55;3.72;;;;;;;;;;5033045;28;20101;-50
2021/08/25 10:50:44;;;;;;;7.07;3.80;;;;;;;;;;5033387;28;20029;-51
2021/08/25 10:53:31;;;;;;;6.53;3.00;;;;;;;;;;5031761;28;20076;-50
2021/08/25 10:56:26;;;;;;;7.95;3.65;;;;;;;;;;5024666;28;20430;-51
2021/08/25 10:58:59;;;;;;;7.93;3.72;;;;;;;;;;5014720;28;20052;-50
2021/08/25 11:01:29;;;;;;;9.60;4.68;;;;;;;;;;5032600;28;20029;-50
2021/08/25 11:03:55;;;;;;;10.63;4.47;;;;;;;;;;5033437;28;20033;-50
2021/08/25 11:06:28;;;;;;;9.75;4.15;;;;;;;;;;5033589;28;20040;-50
2021/08/25 11:08:55;;;;;;;7.68;4.13;;;;;;;;;;5032693;28;20029;-50
2021/08/25 11:11:20;;;;;;;16.85;4.80;;;;;;;;;;5032721;28;20316;-50
2021/08/25 11:13:46;;;;;;;9.13;4.30;;;;;;;;;;5032168;28;20517;-50
2021/08/25 11:16:25;;;;;;;17.27;3.85;;;;;;;;;;5033482;28;20110;-50
2021/08/25 11:18:51;;;;;;;10.60;3.72;;;;;;;;;;5032937;28;20489;-51
2021/08/25 11:21:17;;;;;;;9.38;3.92;;;;;;;;;;5032560;28;20033;-50
2021/08/25 11:23:56;;;;;;;12.65;4.78;;;;;;;;;;5032306;28;20030;-51
2021/08/25 11:26:22;;;;;;;9.05;4.20;;;;;;;;;;5032793;28;20033;-50
2021/08/25 11:28:49;;;;;;;7.75;3.97;;;;;;;;;;5031955;28;20033;-51
2021/08/25 11:31:15;;;;;;;10.70;4.90;;;;;;;;;;5032176;28;20087;-50
2021/08/25 11:33:45;;;;;;;7.53;3.85;;;;;;;;;;5032675;28;20029;-51
2021/08/25 11:36:11;;;;;;;11.35;4.72;;;;;;;;;;5032782;28;20069;-50
2021/08/25 11:38:37;;;;;;;10.68;4.25;;;;;;;;;;5032454;28;20041;-50
2021/08/25 11:41:03;;;;;;;8.52;4.80;;;;;;;;;;5031962;28;20022;-50
2021/08/25 11:43:29;;;;;;;8.93;4.15;;;;;;;;;;5032278;28;20443;-50
2021/08/25 11:45:56;;;;;;;6.95;3.85;;;;;;;;;;5032752;28;20022;-51
2021/08/25 11:48:26;;;;;;;12.45;4.25;;;;;;;;;;5032725;28;20029;-51
2021/08/25 11:50:52;;;;;;;;;;;;;;;;;;5032643;28;20071;-50
2021/08/25 11:53:22;;;;;;;9.35;4.50;;;;;;;;;;5032858;28;19905;-51
2021/08/25 11:55:57;;;;;;;6.70;3.45;;;;;;;;;;5032460;28;20078;-51
2021/08/25 11:58:27;;;;;;;7.45;3.95;;;;;;;;;;5035872;28;20431;-51
2021/08/25 12:00:54;;;;;;;7.15;4.32;;;;;;;;;;5034926;28;20506;-51
2021/08/25 12:03:20;;;;;;;7.70;4.18;;;;;;;;;;5036301;28;20060;-50
2021/08/25 12:05:56;;;;;;;11.57;3.97;;;;;;;;;;5036584;28;20110;-50
2021/08/25 12:08:22;;;;;;;8.25;4.28;;;;;;;;;;5036598;28;20025;-51
2021/08/25 12:11:02;;;;;;;7.20;3.90;;;;;;;;;;5034965;28;20354;-50
2021/08/25 12:13:34;;;;;;;10.20;3.90;;;;;;;;;;5036362;28;20525;-50
2021/08/25 12:16:00;;;;;;;11.38;4.65;;;;;;;;;;5035850;28;20409;-51
2021/08/25 12:18:29;;;;;;;9.95;4.53;;;;;;;;;;5036530;28;20037;-51
2021/08/25 12:20:58;;;;;;;10.85;4.03;;;;;;;;;;5035641;28;20029;-50
2021/08/25 12:23:26;;;;;;;9.77;4.18;;;;;;;;;;5036360;28;20017;-50
2021/08/25 12:25:55;;;;;;;8.65;3.83;;;;;;;;;;5036211;28;20029;-50
2021/08/25 12:28:35;;;;;;;16.17;6.40;;;;;;;;;;5036510;28;20328;-51
2021/08/25 12:31:11;;;;;;;16.58;8.15;;;;;;;;;;5034400;28;20085;-51
2021/08/25 12:33:37;;;;;;;11.93;4.90;;;;;;;;;;5036085;28;20029;-51
2021/08/25 12:36:19;;;;;;;7.05;4.20;;;;;;;;;;5036241;28;20030;-51
2021/08/25 12:38:45;;;;;;;8.90;3.78;;;;;;;;;;5035944;28;20041;-50
2021/08/25 12:41:11;;;;;;;8.77;4.32;;;;;;;;;;5026579;28;20328;-50
2021/08/25 12:43:37;;;;;;;8.43;3.80;;;;;;;;;;5035919;28;20035;-50
2021/08/25 12:46:03;;;;;;;11.13;3.95;;;;;;;;;;5035411;28;20025;-51
2021/08/25 12:48:29;;;;;;;7.93;4.20;;;;;;;;;;5035602;28;20467;-50
2021/08/25 12:50:55;;;;;;;8.63;4.18;;;;;;;;;;5035034;28;20080;-50
2021/08/25 12:53:21;;;;;;;7.88;3.67;;;;;;;;;;5035769;28;20037;-50
2021/08/25 12:55:47;;;;;;;6.93;3.35;;;;;;;;;;5035326;28;20328;-50
2021/08/25 12:58:13;;;;;;;9.07;4.63;;;;;;;;;;5035440;28;20039;-50
2021/08/25 13:00:39;;;;;;;21.33;5.13;;;;;;;;;;5034385;28;20076;-50
2021/08/25 13:03:06;;;;;;;9.25;4.30;;;;;;;;;;5034877;28;20430;-51
2021/08/25 13:05:32;;;;;;;7.05;3.50;;;;;;;;;;5036054;28;20355;-50
2021/08/25 13:07:58;;;;;;;8.38;3.55;;;;;;;;;;5035484;28;20478;-50
2021/08/25 13:10:24;;;;;;;9.85;4.40;;;;;;;;;;5033737;28;20021;-51
2021/08/25 13:12:50;;;;;;;8.45;3.70;;;;;;;;;;5034676;28;20029;-51
2021/08/25 13:15:16;;;;;;;12.73;3.45;;;;;;;;;;5035042;28;20112;-50
2021/08/25 13:17:42;;;;;;;8.95;3.45;;;;;;;;;;5035510;28;20113;-50
2021/08/25 13:20:09;;;;;;;10.18;4.70;;;;;;;;;;5034860;28;20097;-50
2021/08/25 13:22:35;;;;;;;5.70;3.17;;;;;;;;;;5035297;28;20029;-50
2021/08/25 13:25:01;;;;;;;12.30;4.03;;;;;;;;;;5034543;28;20120;-50
2021/08/25 13:27:27;;;;;;;6.38;3.80;;;;;;;;;;5035223;28;20060;-50
2021/08/25 13:29:53;;;;;;;7.55;3.55;;;;;;;;;;5034110;28;20022;-50
2021/08/25 13:32:19;;;;;;;24.05;4.15;;;;;;;;;;5034560;28;20056;-50
2021/08/25 13:34:45;;;;;;;8.32;3.80;;;;;;;;;;5034592;28;20474;-50
2021/08/25 13:37:12;;;;;;;11.52;3.90;;;;;;;;;;5034751;28;20361;-50
2021/08/25 13:39:39;;;;;;;10.85;3.60;;;;;;;;;;5033962;28;20144;-51
2021/08/25 13:42:05;;;;;;;12.23;5.05;;;;;;;;;;5034293;28;20033;-51
2021/08/25 13:44:31;;;;;;;8.85;4.38;;;;;;;;;;5033899;28;20040;-50
2021/08/25 13:46:57;;;;;;;12.90;4.15;;;;;;;;;;5034396;28;20018;-50
2021/08/25 13:49:23;;;;;;;13.05;4.53;;;;;;;;;;5033794;28;20083;-50
2021/08/25 13:51:50;;;;;;;12.93;4.25;;;;;;;;;;5034571;28;20045;-51
2021/08/25 13:54:16;;;;;;;12.35;4.50;;;;;;;;;;5034710;28;20515;-50
2021/08/25 13:56:42;;;;;;;11.90;4.93;;;;;;;;;;5034061;28;20023;-50
2021/08/25 13:59:08;;;;;;;13.75;5.05;;;;;;;;;;5034449;28;20041;-50
2021/08/25 14:01:34;;;;;;;8.15;4.63;;;;;;;;;;5033424;28;20084;-50
2021/08/25 14:04:00;;;;;;;10.20;4.43;;;;;;;;;;5033988;28;20026;-50
2021/08/25 14:06:28;;;;;;;11.35;4.57;;;;;;;;;;5034409;28;20021;-51
2021/08/25 14:08:54;;;;;;;9.15;3.92;;;;;;;;;;5034699;28;20030;-51
2021/08/25 14:11:20;;;;;;;12.50;4.40;;;;;;;;;;5033291;28;20087;-50
2021/08/25 14:13:46;;;;;;;11.77;4.93;;;;;;;;;;5034627;28;20025;-51
2021/08/25 14:16:12;;;;;;;10.48;4.03;;;;;;;;;;5033737;28;20030;-50
2021/08/25 14:18:38;;;;;;;9.73;4.20;;;;;;;;;;5033994;28;20087;-51
2021/08/25 14:21:04;;;;;;;8.35;4.55;;;;;;;;;;5033230;28;20078;-51
2021/08/25 14:23:30;;;;;;;8.48;4.18;;;;;;;;;;5034421;28;20033;-50
2021/08/25 14:25:56;;;;;;;12.00;5.15;;;;;;;;;;5033473;28;20033;-51
2021/08/25 14:28:26;;;;;;;13.02;4.65;;;;;;;;;;5034126;28;20026;-50
2021/08/25 14:30:55;;;;;;;11.32;4.53;;;;;;;;;;5032685;28;20047;-51